Lake Holcombe, Wisconsin
Current Conditions -  °F | °C
As of 3:55 PM on Thursday 23 Oct 2014 (Local Time) from KY23 Reporting Station
Haze Haze  
Wind Chill: 51°   Ceiling: 300
Heat Index: 51°   Visibility: 4mi
Dew Point: 51°   Wind: 3mph
Humidity: 98%   Direction: 140°SE
Pressure: 29.99"   Gusts: NA
Location:  45.2521°N, 91.2394°W
Report Text: KY23 232055Z AUTO 14003KT 4SM BR OVC003 11/11 A2999 RMK AO2 T01080105
Loading
Personal Weather Stations






























Interactive Weather Map
Tropical Storm Tracking
New forecast layout! Learn more

10-Day Weather Forecast

Advertisements
Track Severe Weather on mobile